Aérodrome :
LOGIN :

S'inscrire | Disclaimer

   EN    FR    IT 

 










Légende :    VFR   VFR Marginal   IFR   IFR Intensif   IFR Très Intensif
Visi : 
Plafond : 
>= 8 km
>= 3000ft
5 à 8 km
1000 à 3000 ft
1500m à 5 km
500 à 1000 ft
800 à 1500m
200 à 500 ft
< 800m
< 200 ft
Symboles :   Orages  Brouillard  Fortes neiges  Fortes précipitations  Vent > 20 kt
SIGMETs :   Divers  Orages  Givrage  Turbulence  Onde Orograph.  Cendres Volcan.






- Altitude de l'aérodrome : 140 ft
- Code IATA : NYO


ESKN - Skavsta

DERNIER METAR :
  • 231120Z 27022KT 9999 SCT038 08/M01 Q0987 R26/09//95

METARs EXPIRÉS :
  • 231050Z 27021KT 9999 SCT038 07/M01 Q0987 R26/09//95
  • 231020Z 26021KT 9999 SCT041 07/M00 Q0987 R26/09//95
  • 230950Z 27022G34KT 9999 SCT039 07/M01 Q0987 R26/09//95
  • 230920Z 27022G33KT 9999 SCT035 07/M01 Q0987 R26/09//95
  • 230850Z 27018G29KT 9999 BKN034 07/00 Q0987 R26/19//95

TAF TAF ESKN
Valide du 23 à 12h jusqu'au 24 à 12h UTC


231130Z 2312/2412 27020G30KT 9999 SCT040
BECMG 2314/2316 29015KT



MET'MAP, la Météo Aéronautique d'un coup d'oeil ! - Copyright ORBIFLY Décembre 2007 - Disclaimer

ORBIFLY MET'MAP TEAM :

Programmation & Développement : Alexandra Zaïnal
Sur une idée originale de : Baudouin d'Aumeries
Assistance à la programmation : Marc-Olivier Méhu
Soutien technique & logistique : Manuel Goepfert

Contact : metmap@orbifly.com




SOURCES & CREDITS :

   NOAA